sensor_id;sensor_type;location;lat;lon;timestamp;temperature;humidity
12967;DHT22;6548;49.996;8.238;2024-01-11T05:51:46;-5.20;99.90
12967;DHT22;6548;49.996;8.238;2024-01-11T05:54:12;-5.20;99.90
12967;DHT22;6548;49.996;8.238;2024-01-11T05:56:37;-5.20;99.90
12967;DHT22;6548;49.996;8.238;2024-01-11T05:59:03;-5.30;99.90
12967;DHT22;6548;49.996;8.238;2024-01-11T06:01:28;-5.30;99.90
12967;DHT22;6548;49.996;8.238;2024-01-11T06:03:54;-5.30;99.90
12967;DHT22;6548;49.996;8.238;2024-01-11T06:06:20;-5.30;99.90
12967;DHT22;6548;49.996;8.238;2024-01-11T06:08:46;-5.40;99.90
12967;DHT22;6548;49.996;8.238;2024-01-11T06:11:11;-5.40;99.90
12967;DHT22;6548;49.996;8.238;2024-01-11T06:13:39;-5.40;99.90
12967;DHT22;6548;49.996;8.238;2024-01-11T06:16:05;-5.40;99.90
12967;DHT22;6548;49.996;8.238;2024-01-11T06:18:30;-5.40;99.90
12967;DHT22;6548;49.996;8.238;2024-01-11T06:20:56;-5.40;99.90
12967;DHT22;6548;49.996;8.238;2024-01-11T06:23:24;-5.40;99.90
12967;DHT22;6548;49.996;8.238;2024-01-11T06:25:50;-5.50;99.90
12967;DHT22;6548;49.996;8.238;2024-01-11T06:28:15;-5.50;99.90
12967;DHT22;6548;49.996;8.238;2024-01-11T06:30:41;-5.50;99.90
12967;DHT22;6548;49.996;8.238;2024-01-11T06:33:08;-5.60;99.90
12967;DHT22;6548;49.996;8.238;2024-01-11T06:35:34;-5.60;99.90
12967;DHT22;6548;49.996;8.238;2024-01-11T06:38:00;-5.50;99.90
12967;DHT22;6548;49.996;8.238;2024-01-11T06:40:26;-5.60;99.90
12967;DHT22;6548;49.996;8.238;2024-01-11T06:42:51;-5.60;99.90
12967;DHT22;6548;49.996;8.238;2024-01-11T06:45:17;-5.60;99.90
12967;DHT22;6548;49.996;8.238;2024-01-11T06:47:42;-5.50;99.90
12967;DHT22;6548;49.996;8.238;2024-01-11T06:50:12;-5.50;99.90
12967;DHT22;6548;49.996;8.238;2024-01-11T06:52:37;-5.50;99.90
12967;DHT22;6548;49.996;8.238;2024-01-11T06:55:04;-5.40;99.90
12967;DHT22;6548;49.996;8.238;2024-01-11T06:57:29;-5.40;99.90
12967;DHT22;6548;49.996;8.238;2024-01-11T06:59:55;-5.40;99.90
12967;DHT22;6548;49.996;8.238;2024-01-11T07:02:21;-5.40;99.90
12967;DHT22;6548;49.996;8.238;2024-01-11T07:04:47;-5.40;99.90
12967;DHT22;6548;49.996;8.238;2024-01-11T07:07:12;-5.40;99.90
12967;DHT22;6548;49.996;8.238;2024-01-11T07:09:38;-5.30;99.90
12967;DHT22;6548;49.996;8.238;2024-01-11T07:12:04;-5.30;99.90
12967;DHT22;6548;49.996;8.238;2024-01-11T07:14:30;-5.40;99.90
12967;DHT22;6548;49.996;8.238;2024-01-11T07:16:55;-5.40;99.90
12967;DHT22;6548;49.996;8.238;2024-01-11T07:19:21;-5.50;99.90
12967;DHT22;6548;49.996;8.238;2024-01-11T07:21:47;-5.40;99.90
12967;DHT22;6548;49.996;8.238;2024-01-11T07:24:13;-5.40;99.90
12967;DHT22;6548;49.996;8.238;2024-01-11T07:26:38;-5.40;99.90
12967;DHT22;6548;49.996;8.238;2024-01-11T07:29:04;-5.40;99.90
12967;DHT22;6548;49.996;8.238;2024-01-11T07:31:29;-5.40;99.90
12967;DHT22;6548;49.996;8.238;2024-01-11T07:33:55;-5.40;99.90
12967;DHT22;6548;49.996;8.238;2024-01-11T07:36:21;-5.40;99.90
12967;DHT22;6548;49.996;8.238;2024-01-11T07:38:46;-5.30;99.90
12967;DHT22;6548;49.996;8.238;2024-01-11T07:41:12;-5.30;99.90
12967;DHT22;6548;49.996;8.238;2024-01-11T07:43:37;-5.30;99.90
12967;DHT22;6548;49.996;8.238;2024-01-11T07:46:03;-5.30;99.90
12967;DHT22;6548;49.996;8.238;2024-01-11T07:48:30;-5.30;99.90
12967;DHT22;6548;49.996;8.238;2024-01-11T07:50:57;-5.30;99.90
12967;DHT22;6548;49.996;8.238;2024-01-11T07:53:23;-5.20;99.90
12967;DHT22;6548;49.996;8.238;2024-01-11T07:55:48;-5.10;99.90
12967;DHT22;6548;49.996;8.238;2024-01-11T07:58:14;-5.10;99.90
12967;DHT22;6548;49.996;8.238;2024-01-11T08:00:40;-5.00;99.90
12967;DHT22;6548;49.996;8.238;2024-01-11T08:03:06;-4.90;99.90
12967;DHT22;6548;49.996;8.238;2024-01-11T08:05:31;-5.00;99.90
12967;DHT22;6548;49.996;8.238;2024-01-11T08:07:57;-4.90;99.90
12967;DHT22;6548;49.996;8.238;2024-01-11T08:10:27;-4.80;99.90
12967;DHT22;6548;49.996;8.238;2024-01-11T08:12:52;-4.70;99.90
12967;DHT22;6548;49.996;8.238;2024-01-11T08:15:18;-4.60;99.90
12967;DHT22;6548;49.996;8.238;2024-01-11T08:17:44;-4.50;99.90
12967;DHT22;6548;49.996;8.238;2024-01-11T08:20:11;-4.40;99.90
12967;DHT22;6548;49.996;8.238;2024-01-11T08:22:39;-4.30;99.90
12967;DHT22;6548;49.996;8.238;2024-01-11T08:25:05;-4.30;99.90
12967;DHT22;6548;49.996;8.238;2024-01-11T08:27:33;-4.30;99.90
12967;DHT22;6548;49.996;8.238;2024-01-11T08:29:59;-4.20;99.90
12967;DHT22;6548;49.996;8.238;2024-01-11T08:32:30;-4.20;99.90
12967;DHT22;6548;49.996;8.238;2024-01-11T08:34:57;-4.10;99.90
12967;DHT22;6548;49.996;8.238;2024-01-11T08:37:22;-4.00;99.90
12967;DHT22;6548;49.996;8.238;2024-01-11T08:39:48;-3.90;99.90
12967;DHT22;6548;49.996;8.238;2024-01-11T08:42:14;-3.90;99.90
12967;DHT22;6548;49.996;8.238;2024-01-11T08:44:44;-3.80;99.90
12967;DHT22;6548;49.996;8.238;2024-01-11T08:47:10;-3.80;99.90
12967;DHT22;6548;49.996;8.238;2024-01-11T08:49:39;-3.70;99.90
12967;DHT22;6548;49.996;8.238;2024-01-11T08:52:05;-3.60;99.90
12967;DHT22;6548;49.996;8.238;2024-01-11T08:54:31;-3.60;99.90
12967;DHT22;6548;49.996;8.238;2024-01-11T08:56:58;-3.60;99.90
12967;DHT22;6548;49.996;8.238;2024-01-11T08:59:23;-3.50;99.90
12967;DHT22;6548;49.996;8.238;2024-01-11T09:01:50;-3.40;99.90
12967;DHT22;6548;49.996;8.238;2024-01-11T09:04:16;-3.30;99.90
12967;DHT22;6548;49.996;8.238;2024-01-11T09:06:43;-3.30;99.90
12967;DHT22;6548;49.996;8.238;2024-01-11T09:09:08;-3.20;99.90
12967;DHT22;6548;49.996;8.238;2024-01-11T09:11:35;-3.10;99.90
12967;DHT22;6548;49.996;8.238;2024-01-11T09:14:01;-3.10;99.90
12967;DHT22;6548;49.996;8.238;2024-01-11T09:16:28;-3.10;99.90
12967;DHT22;6548;49.996;8.238;2024-01-11T09:18:54;-3.10;99.90
12967;DHT22;6548;49.996;8.238;2024-01-11T09:21:19;-3.00;99.90
12967;DHT22;6548;49.996;8.238;2024-01-11T09:23:45;-2.90;99.90
12967;DHT22;6548;49.996;8.238;2024-01-11T09:26:10;-2.90;99.90
12967;DHT22;6548;49.996;8.238;2024-01-11T09:28:36;-2.80;99.90
12967;DHT22;6548;49.996;8.238;2024-01-11T09:31:02;-2.80;99.90
12967;DHT22;6548;49.996;8.238;2024-01-11T09:33:28;-2.70;99.90
12967;DHT22;6548;49.996;8.238;2024-01-11T09:35:54;-2.70;99.90
12967;DHT22;6548;49.996;8.238;2024-01-11T09:38:21;-2.60;99.90
12967;DHT22;6548;49.996;8.238;2024-01-11T09:43:33;-2.50;99.90
12967;DHT22;6548;49.996;8.238;2024-01-11T09:46:03;-2.50;99.90
12967;DHT22;6548;49.996;8.238;2024-01-11T09:48:34;-2.40;99.90
12967;DHT22;6548;49.996;8.238;2024-01-11T09:51:04;-2.30;99.90
12967;DHT22;6548;49.996;8.238;2024-01-11T09:53:33;-2.20;99.90
12967;DHT22;6548;49.996;8.238;2024-01-11T09:55:59;-2.20;99.90
12967;DHT22;6548;49.996;8.238;2024-01-11T09:58:26;-2.10;99.90
12967;DHT22;6548;49.996;8.238;2024-01-11T10:00:55;-2.10;99.90
12967;DHT22;6548;49.996;8.238;2024-01-11T10:03:24;-2.00;99.90
12967;DHT22;6548;49.996;8.238;2024-01-11T10:05:51;-1.80;99.90
12967;DHT22;6548;49.996;8.238;2024-01-11T10:08:19;-1.80;99.90
12967;DHT22;6548;49.996;8.238;2024-01-11T10:10:46;-1.70;99.90
12967;DHT22;6548;49.996;8.238;2024-01-11T10:13:12;-1.60;99.90
12967;DHT22;6548;49.996;8.238;2024-01-11T10:15:37;-1.60;99.90
12967;DHT22;6548;49.996;8.238;2024-01-11T10:18:03;-1.40;99.90
12967;DHT22;6548;49.996;8.238;2024-01-11T10:20:29;-1.30;99.90
12967;DHT22;6548;49.996;8.238;2024-01-11T10:22:56;-1.20;99.90
12967;DHT22;6548;49.996;8.238;2024-01-11T10:25:23;-1.10;99.90
12967;DHT22;6548;49.996;8.238;2024-01-11T10:27:48;-1.10;99.90
12967;DHT22;6548;49.996;8.238;2024-01-11T10:30:15;-1.00;99.90
12967;DHT22;6548;49.996;8.238;2024-01-11T10:32:42;-1.00;99.90
12967;DHT22;6548;49.996;8.238;2024-01-11T10:35:08;-1.10;99.90
12967;DHT22;6548;49.996;8.238;2024-01-11T10:37:34;-1.00;99.90
12967;DHT22;6548;49.996;8.238;2024-01-11T10:40:04;-1.00;99.90
12967;DHT22;6548;49.996;8.238;2024-01-11T10:42:45;-0.90;99.90
12967;DHT22;6548;49.996;8.238;2024-01-11T10:45:18;-0.90;99.90
12967;DHT22;6548;49.996;8.238;2024-01-11T10:47:51;-0.80;99.90
12967;DHT22;6548;49.996;8.238;2024-01-11T10:50:19;-0.60;99.90
12967;DHT22;6548;49.996;8.238;2024-01-11T10:53:03;-0.60;99.90
12967;DHT22;6548;49.996;8.238;2024-01-11T10:55:31;-0.40;99.90
12967;DHT22;6548;49.996;8.238;2024-01-11T10:57:59;-0.50;99.90
12967;DHT22;6548;49.996;8.238;2024-01-11T11:00:26;-0.40;99.90
12967;DHT22;6548;49.996;8.238;2024-01-11T11:02:52;-0.40;99.90
12967;DHT22;6548;49.996;8.238;2024-01-11T11:05:21;-0.20;99.90
12967;DHT22;6548;49.996;8.238;2024-01-11T11:07:49;-0.10;99.90
12967;DHT22;6548;49.996;8.238;2024-01-11T11:10:19;-0.10;99.90
12967;DHT22;6548;49.996;8.238;2024-01-11T11:12:47;0.10;99.90
12967;DHT22;6548;49.996;8.238;2024-01-11T11:15:14;0.10;99.90
12967;DHT22;6548;49.996;8.238;2024-01-11T11:17:41;0.20;99.90
12967;DHT22;6548;49.996;8.238;2024-01-11T11:20:08;0.20;99.90
12967;DHT22;6548;49.996;8.238;2024-01-11T11:22:36;0.30;99.90
12967;DHT22;6548;49.996;8.238;2024-01-11T11:25:24;0.20;99.90
12967;DHT22;6548;49.996;8.238;2024-01-11T11:27:50;0.20;99.90
12967;DHT22;6548;49.996;8.238;2024-01-11T11:30:18;0.40;99.90
12967;DHT22;6548;49.996;8.238;2024-01-11T11:32:45;0.80;99.90
12967;DHT22;6548;49.996;8.238;2024-01-11T11:35:11;1.60;99.90
12967;DHT22;6548;49.996;8.238;2024-01-11T11:37:37;2.40;99.90
12967;DHT22;6548;49.996;8.238;2024-01-11T11:40:04;3.20;99.90
12967;DHT22;6548;49.996;8.238;2024-01-11T11:42:31;4.70;99.90
12967;DHT22;6548;49.996;8.238;2024-01-11T11:44:56;7.40;99.90
12967;DHT22;6548;49.996;8.238;2024-01-11T11:47:23;9.20;99.90
12967;DHT22;6548;49.996;8.238;2024-01-11T11:50:04;8.20;99.90
12967;DHT22;6548;49.996;8.238;2024-01-11T11:52:32;6.30;99.90
12967;DHT22;6548;49.996;8.238;2024-01-11T11:54:59;9.00;99.90
12967;DHT22;6548;49.996;8.238;2024-01-11T11:57:26;11.40;99.90
12967;DHT22;6548;49.996;8.238;2024-01-11T11:59:58;10.90;96.30
12967;DHT22;6548;49.996;8.238;2024-01-11T12:02:25;8.40;98.40
12967;DHT22;6548;49.996;8.238;2024-01-11T12:04:51;6.30;99.90
12967;DHT22;6548;49.996;8.238;2024-01-11T12:07:17;4.90;99.90
12967;DHT22;6548;49.996;8.238;2024-01-11T12:09:42;4.00;99.90
12967;DHT22;6548;49.996;8.238;2024-01-11T12:12:08;3.40;99.90
12967;DHT22;6548;49.996;8.238;2024-01-11T12:14:35;2.90;99.90
12967;DHT22;6548;49.996;8.238;2024-01-11T12:17:00;2.60;99.90
12967;DHT22;6548;49.996;8.238;2024-01-11T12:19:27;2.30;99.90
12967;DHT22;6548;49.996;8.238;2024-01-11T12:21:53;2.10;99.90
12967;DHT22;6548;49.996;8.238;2024-01-11T12:24:20;2.00;99.90
12967;DHT22;6548;49.996;8.238;2024-01-11T12:26:47;2.00;99.90
12967;DHT22;6548;49.996;8.238;2024-01-11T12:29:17;2.10;99.90
12967;DHT22;6548;49.996;8.238;2024-01-11T12:31:43;2.00;99.90
12967;DHT22;6548;49.996;8.238;2024-01-11T12:34:11;1.90;99.90
12967;DHT22;6548;49.996;8.238;2024-01-11T12:36:37;2.00;99.90
12967;DHT22;6548;49.996;8.238;2024-01-11T12:39:02;2.10;99.90
12967;DHT22;6548;49.996;8.238;2024-01-11T12:41:30;2.20;99.90
12967;DHT22;6548;49.996;8.238;2024-01-11T12:43:55;2.40;99.90
12967;DHT22;6548;49.996;8.238;2024-01-11T12:46:21;2.40;99.90
12967;DHT22;6548;49.996;8.238;2024-01-11T12:48:48;2.40;99.90
12967;DHT22;6548;49.996;8.238;2024-01-11T12:51:16;2.30;99.90
12967;DHT22;6548;49.996;8.238;2024-01-11T12:53:45;2.30;99.90
12967;DHT22;6548;49.996;8.238;2024-01-11T12:56:10;2.20;99.90
12967;DHT22;6548;49.996;8.238;2024-01-11T12:58:39;2.30;99.90
12967;DHT22;6548;49.996;8.238;2024-01-11T13:01:06;2.30;99.90
12967;DHT22;6548;49.996;8.238;2024-01-11T13:03:37;2.30;99.90
12967;DHT22;6548;49.996;8.238;2024-01-11T13:06:03;2.20;99.90
12967;DHT22;6548;49.996;8.238;2024-01-11T13:08:33;2.30;99.90
12967;DHT22;6548;49.996;8.238;2024-01-11T13:11:02;2.30;99.90
12967;DHT22;6548;49.996;8.238;2024-01-11T13:13:35;2.30;99.90
12967;DHT22;6548;49.996;8.238;2024-01-11T13:16:01;2.30;99.90
12967;DHT22;6548;49.996;8.238;2024-01-11T13:18:31;2.30;99.90
12967;DHT22;6548;49.996;8.238;2024-01-11T13:20:57;2.20;99.90
12967;DHT22;6548;49.996;8.238;2024-01-11T13:23:22;2.10;99.90
12967;DHT22;6548;49.996;8.238;2024-01-11T13:25:49;2.10;99.90
12967;DHT22;6548;49.996;8.238;2024-01-11T13:28:15;2.10;99.90
12967;DHT22;6548;49.996;8.238;2024-01-11T13:30:42;2.10;99.90
12967;DHT22;6548;49.996;8.238;2024-01-11T13:33:09;2.20;99.90
12967;DHT22;6548;49.996;8.238;2024-01-11T13:35:36;2.20;99.90
12967;DHT22;6548;49.996;8.238;2024-01-11T13:38:03;2.20;99.90
12967;DHT22;6548;49.996;8.238;2024-01-11T13:40:32;2.30;99.90
12967;DHT22;6548;49.996;8.238;2024-01-11T13:42:58;2.30;99.90
12967;DHT22;6548;49.996;8.238;2024-01-11T13:45:27;2.20;99.90
12967;DHT22;6548;49.996;8.238;2024-01-11T13:47:53;2.20;99.90
12967;DHT22;6548;49.996;8.238;2024-01-11T13:50:20;2.20;99.90
12967;DHT22;6548;49.996;8.238;2024-01-11T13:52:45;2.20;99.90
12967;DHT22;6548;49.996;8.238;2024-01-11T13:55:12;2.20;99.90
12967;DHT22;6548;49.996;8.238;2024-01-11T13:57:38;2.10;99.90
12967;DHT22;6548;49.996;8.238;2024-01-11T14:00:04;2.10;99.90
12967;DHT22;6548;49.996;8.238;2024-01-11T14:02:30;2.10;99.90
12967;DHT22;6548;49.996;8.238;2024-01-11T14:04:56;2.10;99.90
12967;DHT22;6548;49.996;8.238;2024-01-11T14:07:21;2.00;99.90
12967;DHT22;6548;49.996;8.238;2024-01-11T14:09:47;2.00;99.90
12967;DHT22;6548;49.996;8.238;2024-01-11T14:12:12;1.90;99.90
12967;DHT22;6548;49.996;8.238;2024-01-11T14:14:40;1.90;99.90
12967;DHT22;6548;49.996;8.238;2024-01-11T14:17:06;1.90;99.90
12967;DHT22;6548;49.996;8.238;2024-01-11T14:19:32;1.90;99.90
12967;DHT22;6548;49.996;8.238;2024-01-11T14:21:57;1.80;99.90
12967;DHT22;6548;49.996;8.238;2024-01-11T14:24:23;1.80;99.90
12967;DHT22;6548;49.996;8.238;2024-01-11T14:26:50;1.80;99.90
12967;DHT22;6548;49.996;8.238;2024-01-11T14:29:16;1.70;99.90
12967;DHT22;6548;49.996;8.238;2024-01-11T14:31:41;1.70;99.90
12967;DHT22;6548;49.996;8.238;2024-01-11T14:34:07;1.70;99.90
12967;DHT22;6548;49.996;8.238;2024-01-11T14:36:33;1.70;99.90
12967;DHT22;6548;49.996;8.238;2024-01-11T14:38:58;1.70;99.90
12967;DHT22;6548;49.996;8.238;2024-01-11T14:41:24;1.70;99.90
12967;DHT22;6548;49.996;8.238;2024-01-11T14:43:49;1.60;99.90
12967;DHT22;6548;49.996;8.238;2024-01-11T14:46:15;1.60;99.90
12967;DHT22;6548;49.996;8.238;2024-01-11T14:48:40;1.50;99.90
12967;DHT22;6548;49.996;8.238;2024-01-11T14:51:06;1.50;99.90
12967;DHT22;6548;49.996;8.238;2024-01-11T14:53:33;1.40;99.90
12967;DHT22;6548;49.996;8.238;2024-01-11T14:55:59;1.40;99.90
12967;DHT22;6548;49.996;8.238;2024-01-11T14:58:24;1.30;99.90
12967;DHT22;6548;49.996;8.238;2024-01-11T15:00:50;1.30;99.90
12967;DHT22;6548;49.996;8.238;2024-01-11T15:03:16;1.20;99.90
12967;DHT22;6548;49.996;8.238;2024-01-11T15:05:41;1.20;99.90
12967;DHT22;6548;49.996;8.238;2024-01-11T15:08:07;1.20;99.90
12967;DHT22;6548;49.996;8.238;2024-01-11T15:10:32;1.20;99.90
12967;DHT22;6548;49.996;8.238;2024-01-11T15:12:58;1.10;99.90
12967;DHT22;6548;49.996;8.238;2024-01-11T15:15:23;1.10;99.90
12967;DHT22;6548;49.996;8.238;2024-01-11T15:17:49;0.90;99.90
12967;DHT22;6548;49.996;8.238;2024-01-11T15:20:15;0.90;99.90
12967;DHT22;6548;49.996;8.238;2024-01-11T15:22:41;0.80;99.90
12967;DHT22;6548;49.996;8.238;2024-01-11T15:25:06;0.70;99.90
12967;DHT22;6548;49.996;8.238;2024-01-11T15:27:32;0.70;99.90
12967;DHT22;6548;49.996;8.238;2024-01-11T15:29:58;0.60;99.90
12967;DHT22;6548;49.996;8.238;2024-01-11T15:32:23;0.60;99.90
12967;DHT22;6548;49.996;8.238;2024-01-11T15:34:49;0.50;99.90
12967;DHT22;6548;49.996;8.238;2024-01-11T15:37:15;0.30;99.90
12967;DHT22;6548;49.996;8.238;2024-01-11T15:39:40;0.30;99.90
12967;DHT22;6548;49.996;8.238;2024-01-11T15:42:06;0.30;99.90
12967;DHT22;6548;49.996;8.238;2024-01-11T15:44:31;0.20;99.90
12967;DHT22;6548;49.996;8.238;2024-01-11T15:46:59;0.10;99.90
12967;DHT22;6548;49.996;8.238;2024-01-11T15:49:25;0.00;99.90
12967;DHT22;6548;49.996;8.238;2024-01-11T15:51:51;-0.10;99.90
12967;DHT22;6548;49.996;8.238;2024-01-11T15:54:16;-0.20;99.90
12967;DHT22;6548;49.996;8.238;2024-01-11T15:56:42;-0.20;99.90
12967;DHT22;6548;49.996;8.238;2024-01-11T15:59:07;-0.20;99.90
12967;DHT22;6548;49.996;8.238;2024-01-11T16:01:33;-0.30;99.90
12967;DHT22;6548;49.996;8.238;2024-01-11T16:04:00;-0.50;99.90
12967;DHT22;6548;49.996;8.238;2024-01-11T16:06:27;-0.50;99.90
12967;DHT22;6548;49.996;8.238;2024-01-11T16:08:52;-0.50;99.90
12967;DHT22;6548;49.996;8.238;2024-01-11T16:11:19;-0.60;99.90
12967;DHT22;6548;49.996;8.238;2024-01-11T16:13:45;-0.60;99.90
12967;DHT22;6548;49.996;8.238;2024-01-11T16:16:12;-0.60;99.90
12967;DHT22;6548;49.996;8.238;2024-01-11T16:18:37;-0.70;99.90
12967;DHT22;6548;49.996;8.238;2024-01-11T16:21:03;-0.70;99.90
12967;DHT22;6548;49.996;8.238;2024-01-11T16:23:31;-0.70;99.90
12967;DHT22;6548;49.996;8.238;2024-01-11T16:25:59;-0.70;99.90
12967;DHT22;6548;49.996;8.238;2024-01-11T16:28:30;-0.70;99.90
12967;DHT22;6548;49.996;8.238;2024-01-11T16:30:59;-0.80;99.90
12967;DHT22;6548;49.996;8.238;2024-01-11T16:33:24;-0.80;99.90
12967;DHT22;6548;49.996;8.238;2024-01-11T16:35:50;-0.80;99.90
12967;DHT22;6548;49.996;8.238;2024-01-11T16:38:17;-0.90;99.90
12967;DHT22;6548;49.996;8.238;2024-01-11T16:40:52;-0.90;99.90
12967;DHT22;6548;49.996;8.238;2024-01-11T16:43:43;-1.00;99.90
12967;DHT22;6548;49.996;8.238;2024-01-11T16:48:51;-1.00;99.90
12967;DHT22;6548;49.996;8.238;2024-01-11T16:51:16;-1.00;99.90
12967;DHT22;6548;49.996;8.238;2024-01-11T16:53:42;-1.00;99.90
12967;DHT22;6548;49.996;8.238;2024-01-11T16:56:08;-1.00;99.90
12967;DHT22;6548;49.996;8.238;2024-01-11T16:58:34;-1.00;99.90
12967;DHT22;6548;49.996;8.238;2024-01-11T17:00:59;-1.00;99.90
12967;DHT22;6548;49.996;8.238;2024-01-11T17:03:25;-1.00;99.90
12967;DHT22;6548;49.996;8.238;2024-01-11T17:05:50;-1.10;99.90
12967;DHT22;6548;49.996;8.238;2024-01-11T17:08:16;-1.10;99.90
12967;DHT22;6548;49.996;8.238;2024-01-11T17:10:42;-1.10;99.90
12967;DHT22;6548;49.996;8.238;2024-01-11T17:13:07;-1.10;99.90
12967;DHT22;6548;49.996;8.238;2024-01-11T17:15:35;-1.10;99.90
12967;DHT22;6548;49.996;8.238;2024-01-11T17:18:00;-1.10;99.90
12967;DHT22;6548;49.996;8.238;2024-01-11T17:20:27;-1.00;99.90
12967;DHT22;6548;49.996;8.238;2024-01-11T17:22:52;-1.10;99.90
12967;DHT22;6548;49.996;8.238;2024-01-11T17:25:18;-1.20;99.90
12967;DHT22;6548;49.996;8.238;2024-01-11T17:27:44;-1.20;99.90
12967;DHT22;6548;49.996;8.238;2024-01-11T17:30:09;-1.20;99.90
12967;DHT22;6548;49.996;8.238;2024-01-11T17:32:36;-1.20;99.90
12967;DHT22;6548;49.996;8.238;2024-01-11T17:35:01;-1.30;99.90
12967;DHT22;6548;49.996;8.238;2024-01-11T17:37:27;-1.30;99.90
12967;DHT22;6548;49.996;8.238;2024-01-11T17:39:53;-1.30;99.90
12967;DHT22;6548;49.996;8.238;2024-01-11T17:42:19;-1.30;99.90
12967;DHT22;6548;49.996;8.238;2024-01-11T17:44:45;-1.40;99.90
12967;DHT22;6548;49.996;8.238;2024-01-11T17:47:10;-1.40;99.90
12967;DHT22;6548;49.996;8.238;2024-01-11T17:49:36;-1.40;99.90
12967;DHT22;6548;49.996;8.238;2024-01-11T17:52:07;-1.40;99.90
12967;DHT22;6548;49.996;8.238;2024-01-11T17:54:33;-1.40;99.90
12967;DHT22;6548;49.996;8.238;2024-01-11T17:56:59;-1.40;99.90
12967;DHT22;6548;49.996;8.238;2024-01-11T17:59:24;-1.40;99.90
12967;DHT22;6548;49.996;8.238;2024-01-11T18:01:50;-1.40;99.90
12967;DHT22;6548;49.996;8.238;2024-01-11T18:04:16;-1.40;99.90
12967;DHT22;6548;49.996;8.238;2024-01-11T18:06:44;-1.30;99.90
12967;DHT22;6548;49.996;8.238;2024-01-11T18:09:10;-1.40;99.90
12967;DHT22;6548;49.996;8.238;2024-01-11T18:11:36;-1.40;99.90
12967;DHT22;6548;49.996;8.238;2024-01-11T18:14:02;-1.40;99.90
12967;DHT22;6548;49.996;8.238;2024-01-11T18:16:27;-1.40;99.90
12967;DHT22;6548;49.996;8.238;2024-01-11T18:18:53;-1.50;99.90
12967;DHT22;6548;49.996;8.238;2024-01-11T18:21:19;-1.50;99.90
12967;DHT22;6548;49.996;8.238;2024-01-11T18:23:45;-1.50;99.90
12967;DHT22;6548;49.996;8.238;2024-01-11T18:26:11;-1.60;99.90
12967;DHT22;6548;49.996;8.238;2024-01-11T18:28:37;-1.60;99.90
12967;DHT22;6548;49.996;8.238;2024-01-11T18:31:02;-1.60;99.90
12967;DHT22;6548;49.996;8.238;2024-01-11T18:33:28;-1.60;99.90
12967;DHT22;6548;49.996;8.238;2024-01-11T18:35:54;-1.60;99.90
12967;DHT22;6548;49.996;8.238;2024-01-11T18:38:19;-1.60;99.90
12967;DHT22;6548;49.996;8.238;2024-01-11T18:40:46;-1.60;99.90
12967;DHT22;6548;49.996;8.238;2024-01-11T18:43:12;-1.60;99.90
12967;DHT22;6548;49.996;8.238;2024-01-11T18:45:38;-1.70;99.90
12967;DHT22;6548;49.996;8.238;2024-01-11T18:48:03;-1.70;99.90
12967;DHT22;6548;49.996;8.238;2024-01-11T18:50:34;-1.70;99.90
12967;DHT22;6548;49.996;8.238;2024-01-11T18:53:00;-1.70;99.90
12967;DHT22;6548;49.996;8.238;2024-01-11T18:55:26;-1.70;99.90
12967;DHT22;6548;49.996;8.238;2024-01-11T18:57:51;-1.70;99.90
12967;DHT22;6548;49.996;8.238;2024-01-11T19:00:17;-1.70;99.90
12967;DHT22;6548;49.996;8.238;2024-01-11T19:02:43;-1.70;99.90
12967;DHT22;6548;49.996;8.238;2024-01-11T19:05:10;-1.70;99.90
12967;DHT22;6548;49.996;8.238;2024-01-11T19:07:37;-1.70;99.90
12967;DHT22;6548;49.996;8.238;2024-01-11T19:10:03;-1.70;99.90
12967;DHT22;6548;49.996;8.238;2024-01-11T19:12:32;-1.70;99.90
12967;DHT22;6548;49.996;8.238;2024-01-11T19:14:58;-1.70;99.90
12967;DHT22;6548;49.996;8.238;2024-01-11T19:17:23;-1.70;99.90
12967;DHT22;6548;49.996;8.238;2024-01-11T19:19:49;-1.70;99.90
12967;DHT22;6548;49.996;8.238;2024-01-11T19:22:14;-1.70;99.90
12967;DHT22;6548;49.996;8.238;2024-01-11T19:24:40;-1.70;99.90
12967;DHT22;6548;49.996;8.238;2024-01-11T19:27:06;-1.70;99.90
12967;DHT22;6548;49.996;8.238;2024-01-11T19:29:32;-1.70;99.90
12967;DHT22;6548;49.996;8.238;2024-01-11T19:31:58;-1.70;99.90
12967;DHT22;6548;49.996;8.238;2024-01-11T19:34:23;-1.70;99.90
12967;DHT22;6548;49.996;8.238;2024-01-11T19:36:49;-1.70;99.90
12967;DHT22;6548;49.996;8.238;2024-01-11T19:39:14;-1.70;99.90
12967;DHT22;6548;49.996;8.238;2024-01-11T19:41:40;-1.70;99.90
12967;DHT22;6548;49.996;8.238;2024-01-11T19:44:05;-1.80;99.90
12967;DHT22;6548;49.996;8.238;2024-01-11T19:46:33;-1.80;99.90
12967;DHT22;6548;49.996;8.238;2024-01-11T19:48:59;-1.80;99.90
12967;DHT22;6548;49.996;8.238;2024-01-11T19:51:25;-1.90;99.90
12967;DHT22;6548;49.996;8.238;2024-01-11T19:53:51;-1.90;99.90
12967;DHT22;6548;49.996;8.238;2024-01-11T19:56:18;-1.90;99.90
12967;DHT22;6548;49.996;8.238;2024-01-11T19:58:45;-1.90;99.90
12967;DHT22;6548;49.996;8.238;2024-01-11T20:01:11;-1.90;99.90
12967;DHT22;6548;49.996;8.238;2024-01-11T20:03:38;-2.00;99.90
12967;DHT22;6548;49.996;8.238;2024-01-11T20:06:04;-2.00;99.90
12967;DHT22;6548;49.996;8.238;2024-01-11T20:08:30;-1.90;99.90
12967;DHT22;6548;49.996;8.238;2024-01-11T20:10:56;-1.90;99.90
12967;DHT22;6548;49.996;8.238;2024-01-11T20:13:22;-1.90;99.90
12967;DHT22;6548;49.996;8.238;2024-01-11T20:15:47;-1.90;99.90
12967;DHT22;6548;49.996;8.238;2024-01-11T20:18:13;-1.80;99.90
12967;DHT22;6548;49.996;8.238;2024-01-11T20:20:38;-1.80;99.90
12967;DHT22;6548;49.996;8.238;2024-01-11T20:23:04;-1.80;99.90
12967;DHT22;6548;49.996;8.238;2024-01-11T20:25:30;-1.80;99.90
12967;DHT22;6548;49.996;8.238;2024-01-11T20:27:55;-1.70;99.90
12967;DHT22;6548;49.996;8.238;2024-01-11T20:30:21;-1.70;99.90
12967;DHT22;6548;49.996;8.238;2024-01-11T20:32:47;-1.60;99.90
12967;DHT22;6548;49.996;8.238;2024-01-11T20:35:13;-1.60;99.90
12967;DHT22;6548;49.996;8.238;2024-01-11T20:37:39;-1.60;99.90
12967;DHT22;6548;49.996;8.238;2024-01-11T20:40:07;-1.60;99.90
12967;DHT22;6548;49.996;8.238;2024-01-11T20:42:33;-1.60;99.90
12967;DHT22;6548;49.996;8.238;2024-01-11T20:44:59;-1.60;99.90
12967;DHT22;6548;49.996;8.238;2024-01-11T20:47:24;-1.70;99.90
12967;DHT22;6548;49.996;8.238;2024-01-11T20:49:51;-1.70;99.90
12967;DHT22;6548;49.996;8.238;2024-01-11T20:52:16;-1.80;99.90
12967;DHT22;6548;49.996;8.238;2024-01-11T20:54:42;-1.80;99.90
12967;DHT22;6548;49.996;8.238;2024-01-11T20:57:07;-1.80;99.90
12967;DHT22;6548;49.996;8.238;2024-01-11T20:59:33;-1.80;99.90
12967;DHT22;6548;49.996;8.238;2024-01-11T21:02:00;-1.80;99.90
12967;DHT22;6548;49.996;8.238;2024-01-11T21:04:26;-1.90;99.90
12967;DHT22;6548;49.996;8.238;2024-01-11T21:06:52;-2.00;99.90
12967;DHT22;6548;49.996;8.238;2024-01-11T21:09:17;-2.00;99.90
12967;DHT22;6548;49.996;8.238;2024-01-11T21:11:43;-2.00;99.90
12967;DHT22;6548;49.996;8.238;2024-01-11T21:14:08;-1.90;99.90
12967;DHT22;6548;49.996;8.238;2024-01-11T21:16:35;-2.00;99.90
12967;DHT22;6548;49.996;8.238;2024-01-11T21:19:02;-2.10;99.90
12967;DHT22;6548;49.996;8.238;2024-01-11T21:21:30;-2.10;99.90
12967;DHT22;6548;49.996;8.238;2024-01-11T21:23:57;-2.10;99.90
12967;DHT22;6548;49.996;8.238;2024-01-11T21:26:25;-2.10;99.90
12967;DHT22;6548;49.996;8.238;2024-01-11T21:28:51;-2.10;99.90
12967;DHT22;6548;49.996;8.238;2024-01-11T21:31:19;-2.10;99.90
12967;DHT22;6548;49.996;8.238;2024-01-11T21:33:46;-2.20;99.90
12967;DHT22;6548;49.996;8.238;2024-01-11T21:36:11;-2.20;99.90
12967;DHT22;6548;49.996;8.238;2024-01-11T21:38:37;-2.30;99.90
12967;DHT22;6548;49.996;8.238;2024-01-11T21:41:02;-2.20;99.90